Time;durP1;ratioP1;P1;durP2;ratioP2;P2;SDS_P1;SDS_P2;PMS_P1;PMS_P2;Temp;Humidity;BMP_temperature;BMP_pressure;BME280_temperature;BME280_humidity;BME280_pressure;Samples;Min_cycle;Max_cycle;Signal;HPM_P1;HPM_P2
2021/07/20 00:02:03;;;;;;;7.63;3.53;;;;;;;18.34;53.62;101551.44;6178432;23;20019;-81
2021/07/20 00:04:28;;;;;;;9.68;3.90;;;;;;;18.45;53.39;101547.53;6177943;23;20025;-80
2021/07/20 00:06:53;;;;;;;8.55;3.72;;;;;;;18.55;52.89;101547.38;6178207;23;20595;-80
2021/07/20 00:09:19;;;;;;;10.27;4.70;;;;;;;18.50;52.76;101552.47;6178683;23;20088;-80
2021/07/20 00:11:44;;;;;;;8.85;3.60;;;;;;;18.38;52.93;101552.78;6180150;23;20028;-80
2021/07/20 00:14:10;;;;;;;10.70;3.75;;;;;;;18.35;53.39;101550.41;6151431;23;20686;-80
2021/07/20 00:16:35;;;;;;;8.70;3.28;;;;;;;18.36;53.26;101548.53;6151887;23;20008;-80
2021/07/20 00:19:01;;;;;;;8.40;3.45;;;;;;;18.38;53.26;101549.22;6177815;23;20016;-80
2021/07/20 00:21:26;;;;;;;10.63;3.65;;;;;;;18.28;53.44;101553.97;6178217;23;20009;-80
2021/07/20 00:23:51;;;;;;;7.45;3.30;;;;;;;18.40;53.43;101546.34;6178220;23;20060;-80
2021/07/20 00:26:17;;;;;;;10.40;4.13;;;;;;;18.36;53.20;101560.28;6178623;23;20100;-80
2021/07/20 00:28:43;;;;;;;6.35;3.65;;;;;;;18.07;54.18;101560.69;6178880;23;20012;-80
2021/07/20 00:31:08;;;;;;;10.95;3.90;;;;;;;18.16;53.87;101561.59;6151049;23;20521;-80
2021/07/20 00:33:33;;;;;;;11.25;4.78;;;;;;;18.09;54.17;101553.25;6177885;23;20409;-80
2021/07/20 00:35:59;;;;;;;8.43;3.60;;;;;;;18.27;53.86;101553.09;6178016;23;20060;-80
2021/07/20 00:38:26;;;;;;;10.95;3.92;;;;;;;18.41;53.31;101548.03;6178199;23;20009;-80
2021/07/20 00:40:52;;;;;;;8.45;3.50;;;;;;;18.40;53.23;101551.78;6151790;23;20473;-80
2021/07/20 00:43:17;;;;;;;10.85;4.05;;;;;;;18.18;54.02;101547.78;6152031;23;20044;-80
2021/07/20 00:45:43;;;;;;;9.68;3.67;;;;;;;18.51;53.23;101548.72;6177917;23;20009;-80
2021/07/20 00:48:08;;;;;;;7.65;3.30;;;;;;;18.59;52.66;101557.75;6177516;23;20016;-80
2021/07/20 00:50:39;;;;;;;8.85;3.40;;;;;;;18.59;52.36;101551.47;6177246;23;20334;-80
2021/07/20 00:53:06;;;;;;;12.43;3.50;;;;;;;18.63;52.12;101546.53;6178274;23;20606;-80
2021/07/20 00:55:35;;;;;;;13.27;3.65;;;;;;;18.63;52.19;101547.38;6151625;23;20327;-80
2021/07/20 00:58:02;;;;;;;7.10;3.63;;;;;;;18.66;51.97;101541.59;6178864;23;20044;-80
2021/07/20 01:00:28;;;;;;;14.73;3.33;;;;;;;18.59;52.19;101548.75;6178186;23;20064;-80
2021/07/20 01:02:54;;;;;;;9.02;3.42;;;;;;;18.66;52.20;101538.88;6177930;23;20441;-80
2021/07/20 01:05:23;;;;;;;7.30;3.25;;;;;;;18.62;52.31;101542.97;6177679;23;20017;-81
2021/07/20 01:07:49;;;;;;;10.77;4.18;;;;;;;18.63;52.51;101541.94;6178000;23;20007;-80
2021/07/20 01:10:16;;;;;;;9.77;4.35;;;;;;;18.31;53.10;101537.28;6178452;23;20017;-81
2021/07/20 01:12:43;;;;;;;21.20;4.32;;;;;;;18.38;52.92;101535.59;6152140;23;20609;-80
2021/07/20 01:15:10;;;;;;;9.15;3.60;;;;;;;18.42;52.89;101526.06;6150986;23;20008;-80
2021/07/20 01:17:37;;;;;;;9.73;3.80;;;;;;;18.32;53.20;101531.66;6178183;23;20016;-80
2021/07/20 01:20:08;;;;;;;9.00;3.67;;;;;;;18.41;52.83;101523.53;6177774;23;20451;-81
2021/07/20 01:22:35;;;;;;;8.57;3.45;;;;;;;18.45;52.92;101528.44;6178165;23;20013;-80
2021/07/20 01:25:09;;;;;;;8.60;4.00;;;;;;;18.46;53.02;101527.44;6177869;23;20032;-80
2021/07/20 01:27:36;;;;;;;7.63;3.88;;;;;;;18.37;53.00;101521.13;6178822;23;20776;-80
2021/07/20 01:30:03;;;;;;;13.48;5.38;;;;;;;18.31;53.23;101524.53;6151062;23;20341;-80
2021/07/20 01:32:28;;;;;;;8.30;3.70;;;;;;;18.12;53.80;101527.53;6177913;23;20084;-81
2021/07/20 01:34:55;;;;;;;9.10;4.05;;;;;;;18.06;54.32;101526.34;6177922;23;20028;-80
2021/07/20 01:37:22;;;;;;;12.20;4.65;;;;;;;18.17;54.10;101525.16;6150990;23;20009;-81
2021/07/20 01:39:49;;;;;;;10.32;3.90;;;;;;;18.13;54.24;101530.09;6151597;23;20006;-81
2021/07/20 01:42:15;;;;;;;9.10;4.20;;;;;;;18.26;53.79;101523.31;6152618;23;20015;-80
2021/07/20 01:44:42;;;;;;;12.20;4.15;;;;;;;18.30;53.16;101524.69;6177716;23;20033;-80
2021/07/20 01:47:08;;;;;;;6.53;3.83;;;;;;;18.30;53.32;101517.34;6177375;23;20430;-80
2021/07/20 01:49:34;;;;;;;12.50;4.35;;;;;;;18.34;53.44;101518.75;6177796;23;20016;-80
2021/07/20 01:52:00;;;;;;;9.15;4.00;;;;;;;18.47;53.21;101522.84;6177827;23;20342;-80
2021/07/20 01:54:27;;;;;;;6.60;3.58;;;;;;;18.47;52.98;101520.97;6179510;23;20012;-80
2021/07/20 01:56:52;;;;;;;10.13;4.78;;;;;;;18.51;53.00;101516.88;6153732;23;20009;-81
2021/07/20 01:59:18;;;;;;;8.43;3.80;;;;;;;18.55;52.97;101515.53;6180005;23;20015;-80
2021/07/20 02:02:06;;;;;;;10.23;3.30;;;;;;;18.31;53.46;101518.25;6179427;23;20033;-80
2021/07/20 02:09:51;;;;;;;8.75;4.00;;;;;;;18.12;54.02;101517.53;6178906;23;20021;-80
2021/07/20 02:12:19;;;;;;;7.82;3.75;;;;;;;18.25;53.88;101511.59;6153756;23;20836;-80
2021/07/20 02:14:47;;;;;;;10.77;3.60;;;;;;;18.24;53.89;101507.13;6153358;23;20013;-80
2021/07/20 02:17:14;;;;;;;8.60;3.70;;;;;;;18.23;54.08;101512.75;6152266;23;20013;-80
2021/07/20 02:19:50;;;;;;;9.02;3.42;;;;;;;18.47;53.60;101503.78;6178892;23;20406;-80
2021/07/20 02:22:19;;;;;;;8.35;3.40;;;;;;;18.52;53.72;101506.88;6179295;23;20009;-80
2021/07/20 02:24:47;;;;;;;11.48;3.72;;;;;;;18.58;53.53;101508.91;6179010;23;20008;-80
2021/07/20 02:27:13;;;;;;;9.23;3.70;;;;;;;18.66;53.16;101510.78;6179135;23;20079;-80
2021/07/20 02:29:43;;;;;;;10.20;4.25;;;;;;;18.70;52.88;101507.56;6180253;23;20004;-80
2021/07/20 02:32:09;;;;;;;10.80;4.47;;;;;;;18.59;53.37;101503.28;6179449;23;20067;-80
2021/07/20 02:34:37;;;;;;;11.13;4.35;;;;;;;18.58;53.60;101511.63;6152423;23;20043;-80
2021/07/20 02:37:04;;;;;;;8.25;4.30;;;;;;;18.58;53.54;101511.63;6178808;23;20009;-81
2021/07/20 02:39:31;;;;;;;9.20;4.72;;;;;;;18.55;53.72;101512.81;6179278;23;20076;-80
2021/07/20 02:41:57;;;;;;;11.48;4.45;;;;;;;18.54;53.71;101511.09;6179663;23;20633;-80
2021/07/20 02:44:24;;;;;;;6.25;4.50;;;;;;;18.57;53.55;101510.75;6153179;23;20019;-80
2021/07/20 02:46:50;;;;;;;8.30;4.63;;;;;;;18.44;54.10;101509.56;6180095;23;20005;-80
2021/07/20 02:49:16;;;;;;;9.93;4.63;;;;;;;18.47;54.12;101509.22;6152126;23;20009;-81
2021/07/20 02:51:44;;;;;;;9.18;4.25;;;;;;;18.27;54.26;101503.22;6152669;23;20012;-80
2021/07/20 02:54:10;;;;;;;8.70;4.15;;;;;;;17.88;55.21;101512.84;6179023;23;20438;-80
2021/07/20 02:56:38;;;;;;;7.82;4.53;;;;;;;17.94;55.64;101502.28;6179399;23;20001;-80
2021/07/20 02:59:05;;;;;;;7.88;4.45;;;;;;;18.10;55.07;101507.81;6180202;23;20012;-80
2021/07/20 03:01:35;;;;;;;7.18;4.07;;;;;;;18.13;55.07;101505.59;6179549;23;20092;-80
2021/07/20 03:04:01;;;;;;;10.82;4.55;;;;;;;18.00;55.37;101513.41;6178191;23;20143;-81
2021/07/20 03:06:27;;;;;;;12.20;4.75;;;;;;;18.02;55.46;101505.91;6178777;23;20013;-80
2021/07/20 03:08:58;;;;;;;8.00;4.03;;;;;;;17.96;55.52;101512.00;6151360;23;20009;-81
2021/07/20 03:11:28;;;;;;;12.43;4.43;;;;;;;18.00;55.75;101516.13;6178732;23;20009;-80
2021/07/20 03:13:56;;;;;;;10.48;4.75;;;;;;;17.98;56.06;101517.31;6180107;23;20020;-80
2021/07/20 03:16:23;;;;;;;14.98;5.10;;;;;;;17.81;56.49;101522.66;6178530;23;20005;-80
2021/07/20 03:18:52;;;;;;;14.82;5.07;;;;;;;17.99;55.78;101510.81;6151556;23;20028;-80
2021/07/20 03:21:18;;;;;;;10.88;5.15;;;;;;;17.97;55.67;101513.72;6177929;23;20059;-81
2021/07/20 03:23:45;;;;;;;5.95;4.50;;;;;;;17.97;55.63;101504.69;6151184;23;20012;-80
2021/07/20 03:26:11;;;;;;;11.13;5.43;;;;;;;18.08;55.26;101510.69;6178397;23;20005;-80
2021/07/20 03:28:39;;;;;;;5.47;4.40;;;;;;;17.85;55.58;101504.16;6179758;23;20456;-80
2021/07/20 03:31:05;;;;;;;10.73;5.00;;;;;;;17.84;55.37;101510.59;6151651;23;20495;-81
2021/07/20 03:33:31;;;;;;;9.35;4.50;;;;;;;17.75;55.68;101504.25;6178079;23;20056;-80
2021/07/20 03:35:57;;;;;;;9.25;4.93;;;;;;;17.74;54.95;101508.00;6178352;23;20036;-81
2021/07/20 03:38:23;;;;;;;11.70;5.40;;;;;;;17.67;55.36;101506.94;6151465;23;20023;-80
2021/07/20 03:40:51;;;;;;;10.00;5.38;;;;;;;17.72;55.25;101503.72;6151489;23;20009;-81
2021/07/20 03:43:18;;;;;;;7.57;5.15;;;;;;;17.73;55.25;101505.44;6151416;23;20016;-80
2021/07/20 03:45:45;;;;;;;10.88;5.28;;;;;;;17.80;55.27;101506.50;6151596;23;20334;-80
2021/07/20 03:48:13;;;;;;;7.40;5.35;;;;;;;17.91;54.95;101498.91;6152687;23;20808;-80
2021/07/20 03:50:41;;;;;;;10.48;5.03;;;;;;;17.92;54.71;101500.59;6178400;23;20068;-81
2021/07/20 03:53:07;;;;;;;12.85;6.13;;;;;;;17.91;54.75;101487.19;6177950;23;20493;-80
2021/07/20 03:55:35;;;;;;;12.85;5.93;;;;;;;17.72;55.33;101493.69;6177985;23;20009;-80
2021/07/20 03:58:01;;;;;;;11.63;6.15;;;;;;;18.05;54.39;101491.13;6150955;23;20091;-80
2021/07/20 04:00:27;;;;;;;11.05;5.88;;;;;;;17.97;54.45;101493.81;6151161;23;20091;-80
2021/07/20 04:05:40;;;;;;;8.35;5.78;;;;;;;17.81;54.66;101498.19;6178133;23;20031;-80
2021/07/20 04:08:08;;;;;;;13.13;6.97;;;;;;;17.95;54.41;101490.41;6178322;23;20028;-80
2021/07/20 04:10:34;;;;;;;12.10;6.40;;;;;;;17.88;54.58;101493.78;6151262;23;20013;-80
2021/07/20 04:13:00;;;;;;;10.95;6.32;;;;;;;17.69;54.53;101496.72;6151277;23;20005;-80
2021/07/20 04:15:25;;;;;;;16.23;6.63;;;;;;;17.96;54.09;101492.09;6151657;23;20009;-80
2021/07/20 04:17:51;;;;;;;10.55;6.25;;;;;;;17.97;54.18;101496.53;6178098;23;20070;-80
2021/07/20 04:20:16;;;;;;;9.30;6.45;;;;;;;18.12;53.79;101494.84;6152683;23;20009;-80
2021/07/20 04:22:43;;;;;;;10.13;5.50;;;;;;;18.21;53.59;101493.84;6178595;23;20016;-80
2021/07/20 04:25:11;;;;;;;10.85;6.72;;;;;;;18.13;53.93;101499.31;6177610;23;20032;-80
2021/07/20 04:27:38;;;;;;;11.18;5.97;;;;;;;18.25;53.84;101500.69;6177606;23;20099;-80
2021/07/20 04:30:06;;;;;;;11.70;6.53;;;;;;;18.33;53.48;101506.16;6177574;23;20004;-80
2021/07/20 04:32:32;;;;;;;9.80;6.22;;;;;;;18.23;53.58;101500.00;6177717;23;20005;-80
2021/07/20 04:34:57;;;;;;;9.98;6.05;;;;;;;18.22;53.63;101497.47;6178137;23;20015;-80
2021/07/20 04:37:25;;;;;;;10.45;5.80;;;;;;;18.24;53.28;101498.97;6178697;23;20009;-80
2021/07/20 04:39:53;;;;;;;13.35;6.95;;;;;;;18.34;53.22;101502.41;6151571;23;20051;-80
2021/07/20 04:42:18;;;;;;;13.02;5.88;;;;;;;18.30;53.55;101505.63;6177986;23;20005;-80
2021/07/20 04:44:44;;;;;;;11.80;7.63;;;;;;;18.23;53.41;101512.75;6178022;23;20027;-81
2021/07/20 04:47:09;;;;;;;11.50;7.35;;;;;;;18.26;53.41;101506.97;6177714;23;20005;-81
2021/07/20 04:49:35;;;;;;;11.00;6.13;;;;;;;18.03;54.04;101515.78;6151080;23;20461;-80
2021/07/20 04:52:02;;;;;;;12.65;7.00;;;;;;;18.19;53.62;101520.41;6178004;23;20017;-80
2021/07/20 04:54:28;;;;;;;10.90;6.55;;;;;;;18.18;53.81;101515.97;6178473;23;20009;-80
2021/07/20 04:56:54;;;;;;;10.20;6.45;;;;;;;18.31;53.27;101520.97;6178908;23;20516;-80
2021/07/20 04:59:19;;;;;;;14.10;7.35;;;;;;;18.33;53.29;101517.06;6150909;23;20001;-80
2021/07/20 05:01:45;;;;;;;12.50;7.30;;;;;;;18.25;53.11;101517.03;6177822;23;20009;-81
2021/07/20 05:04:11;;;;;;;11.48;7.05;;;;;;;18.49;52.83;101509.94;6178677;23;20012;-81
2021/07/20 05:06:38;;;;;;;13.18;8.02;;;;;;;18.25;53.49;101510.75;6178728;23;20016;-81
2021/07/20 05:09:06;;;;;;;11.10;7.70;;;;;;;18.26;53.41;101513.28;6151328;23;20063;-81
2021/07/20 05:11:33;;;;;;;9.30;7.47;;;;;;;18.21;53.69;101514.78;6172979;23;20005;-80
2021/07/20 05:13:59;;;;;;;15.43;7.50;;;;;;;18.32;53.44;101518.06;6176466;23;20005;-80
2021/07/20 05:16:24;;;;;;;13.73;7.22;;;;;;;18.38;52.99;101519.25;6178139;23;20028;-80
2021/07/20 05:18:50;;;;;;;11.38;7.97;;;;;;;18.28;53.37;101519.41;6177832;23;20012;-80
2021/07/20 05:21:17;;;;;;;15.43;7.30;;;;;;;18.40;53.51;101524.56;6150299;23;20791;-80
2021/07/20 05:23:46;;;;;;;13.25;7.63;;;;;;;18.56;52.83;101521.84;6177490;23;20040;-80
2021/07/20 05:26:11;;;;;;;14.02;8.30;;;;;;;18.56;52.73;101522.69;6177236;23;20461;-80
2021/07/20 05:28:37;;;;;;;11.38;7.80;;;;;;;18.62;52.42;101526.59;6179328;23;20008;-80
2021/07/20 05:31:04;;;;;;;13.07;7.95;;;;;;;18.55;52.87;101517.41;6153196;23;20072;-80
2021/07/20 05:33:32;;;;;;;13.75;8.57;;;;;;;18.48;53.08;101517.22;6152992;23;20016;-80
2021/07/20 05:35:59;;;;;;;13.98;7.53;;;;;;;18.58;52.79;101515.22;6152493;23;20028;-80
2021/07/20 05:38:29;;;;;;;11.68;8.25;;;;;;;18.52;53.31;101520.50;6152633;23;20036;-80
2021/07/20 05:40:57;;;;;;;16.30;8.35;;;;;;;18.61;52.43;101519.47;6179168;23;20039;-80
2021/07/20 05:43:25;;;;;;;16.63;9.48;;;;;;;18.62;52.25;101512.16;6179102;23;20334;-80
2021/07/20 05:45:52;;;;;;;13.25;8.55;;;;;;;18.71;52.18;101522.03;6179247;23;20009;-80
2021/07/20 05:48:21;;;;;;;12.93;7.60;;;;;;;18.60;51.91;101515.03;6179707;23;20384;-80
2021/07/20 05:50:54;;;;;;;14.07;7.75;;;;;;;18.71;52.11;101514.69;6179980;23;20128;-80
2021/07/20 05:53:22;;;;;;;12.77;7.72;;;;;;;18.84;52.20;101519.66;6178662;23;20019;-80
2021/07/20 05:55:55;;;;;;;11.48;8.05;;;;;;;18.85;52.01;101517.78;6179007;23;20114;-80
2021/07/20 05:58:21;;;;;;;12.32;7.25;;;;;;;18.78;51.86;101517.63;6179140;23;20183;-79
2021/07/20 06:00:49;;;;;;;15.73;8.43;;;;;;;18.77;51.76;101527.66;6178648;23;20056;-81
2021/07/20 06:03:16;;;;;;;14.82;7.75;;;;;;;18.58;51.85;101528.81;6179129;23;20442;-80
2021/07/20 06:05:44;;;;;;;11.35;7.57;;;;;;;18.69;51.29;101518.59;6180538;23;20442;-80
2021/07/20 06:08:15;;;;;;;15.82;8.05;;;;;;;18.93;51.46;101520.50;6179102;23;20031;-80
2021/07/20 06:10:41;;;;;;;13.25;8.52;;;;;;;18.99;51.78;101525.28;6178985;23;20338;-80
2021/07/20 06:13:07;;;;;;;13.63;8.40;;;;;;;19.17;51.20;101528.66;6151795;23;20078;-81
2021/07/20 06:15:33;;;;;;;12.43;8.00;;;;;;;18.98;50.95;101520.84;6178766;23;20016;-80
2021/07/20 06:17:59;;;;;;;13.70;8.15;;;;;;;18.92;50.78;101518.81;6178971;23;20041;-80
2021/07/20 06:20:24;;;;;;;12.98;8.27;;;;;;;19.00;50.86;101524.25;6178964;23;20005;-81
2021/07/20 06:22:52;;;;;;;12.40;8.30;;;;;;;19.13;50.34;101520.97;6179797;23;20009;-80
2021/07/20 06:25:21;;;;;;;16.67;8.65;;;;;;;19.49;49.81;101521.41;6153509;23;20461;-81
2021/07/20 06:27:50;;;;;;;14.90;7.18;;;;;;;19.69;48.95;101533.66;6178731;23;20096;-80
2021/07/20 06:30:16;;;;;;;11.75;7.68;;;;;;;19.71;49.48;101531.63;6178576;23;20009;-80
2021/07/20 06:32:42;;;;;;;12.73;7.72;;;;;;;19.78;48.23;101530.91;6178613;23;20126;-80
2021/07/20 06:35:15;;;;;;;13.10;8.60;;;;;;;19.77;49.20;101527.31;6151998;23;20009;-80
2021/07/20 06:37:46;;;;;;;12.85;7.40;;;;;;;20.06;48.47;101534.03;6180073;23;20605;-80
2021/07/20 06:40:19;;;;;;;10.25;6.78;;;;;;;19.88;48.00;101523.34;6152150;23;20098;-80
2021/07/20 06:42:46;;;;;;;9.88;7.30;;;;;;;20.09;48.41;101525.47;6178844;23;20009;-81
2021/07/20 06:45:16;;;;;;;10.80;6.78;;;;;;;20.05;48.00;101522.25;6178539;23;20071;-80
2021/07/20 06:47:46;;;;;;;13.90;7.55;;;;;;;20.24;48.44;101515.47;6151969;23;20382;-81
2021/07/20 06:50:17;;;;;;;10.38;7.22;;;;;;;20.13;48.07;101527.66;6178422;23;20009;-80
2021/07/20 06:52:43;;;;;;;14.38;7.20;;;;;;;20.25;47.60;101529.97;6180136;23;20092;-80
2021/07/20 06:55:10;;;;;;;9.77;7.25;;;;;;;20.18;47.39;101527.97;6152641;23;20851;-80
2021/07/20 06:57:37;;;;;;;10.50;6.57;;;;;;;20.62;47.11;101529.25;6178051;23;20011;-81
2021/07/20 07:00:07;;;;;;;10.07;6.90;;;;;;;20.64;46.77;101527.19;6152052;23;20116;-81
2021/07/20 07:02:35;;;;;;;10.25;7.07;;;;;;;20.94;46.80;101532.75;6178422;23;20005;-81
2021/07/20 07:05:12;;;;;;;11.02;7.35;;;;;;;21.01;45.95;101530.97;6178000;23;20075;-80
2021/07/20 07:07:38;;;;;;;10.90;6.85;;;;;;;20.92;45.87;101532.94;6178318;23;20048;-80
2021/07/20 07:10:07;;;;;;;9.95;6.57;;;;;;;20.87;46.44;101529.88;6153077;23;20032;-81
2021/07/20 07:12:34;;;;;;;14.35;7.25;;;;;;;21.11;46.24;101534.28;6178785;23;20008;-80
2021/07/20 07:15:02;;;;;;;9.07;6.50;;;;;;;20.85;45.96;101540.19;6150981;23;20004;-80
2021/07/20 07:17:28;;;;;;;9.00;6.30;;;;;;;20.62;46.93;101537.44;6151279;23;20097;-80
2021/07/20 07:19:55;;;;;;;12.68;6.82;;;;;;;20.57;47.04;101540.75;6178532;23;20112;-80
2021/07/20 07:22:22;;;;;;;11.20;6.80;;;;;;;20.73;47.00;101547.09;6179062;23;20009;-81
2021/07/20 07:24:50;;;;;;;12.02;6.88;;;;;;;20.75;47.16;101545.88;6178475;23;20005;-81
2021/07/20 07:27:17;;;;;;;8.52;6.03;;;;;;;20.65;47.50;101540.66;6152876;23;20001;-81
2021/07/20 07:29:43;;;;;;;9.85;6.53;;;;;;;20.18;48.45;101546.25;6178170;23;20039;-80
2021/07/20 07:32:09;;;;;;;12.50;7.05;;;;;;;20.20;48.57;101536.84;6178158;23;20378;-81
2021/07/20 07:34:36;;;;;;;21.48;6.82;;;;;;;20.31;49.12;101538.31;6151123;23;20012;-81
2021/07/20 07:37:02;;;;;;;11.20;6.97;;;;;;;20.14;48.76;101543.03;6178047;23;20009;-80
2021/07/20 07:39:28;;;;;;;12.23;7.13;;;;;;;20.52;48.75;101545.03;6151242;23;20637;-81
2021/07/20 07:41:54;;;;;;;9.82;6.65;;;;;;;20.68;48.16;101549.53;6179039;23;20013;-81
2021/07/20 07:44:21;;;;;;;10.75;6.50;;;;;;;20.94;47.53;101550.00;6179035;23;20005;-80
2021/07/20 07:46:49;;;;;;;10.40;6.68;;;;;;;21.15;47.08;101541.09;6178147;23;20032;-81
2021/07/20 07:49:16;;;;;;;12.73;6.40;;;;;;;21.17;46.96;101547.22;6177635;23;20517;-81
2021/07/20 07:51:44;;;;;;;12.93;5.97;;;;;;;21.01;46.86;101540.03;6178081;23;20698;-81
2021/07/20 07:54:12;;;;;;;14.00;6.80;;;;;;;20.88;47.17;101540.66;6178455;23;20005;-80
2021/07/20 07:56:38;;;;;;;8.95;6.28;;;;;;;20.86;47.52;101536.41;6178504;23;20012;-81
2021/07/20 07:59:04;;;;;;;9.20;6.45;;;;;;;20.84;47.45;101533.84;6179247;23;20366;-81
2021/07/20 08:01:32;;;;;;;13.48;6.15;;;;;;;20.95;47.26;101532.56;6178128;23;20060;-81
2021/07/20 08:04:00;;;;;;;12.68;6.18;;;;;;;21.15;47.58;101534.75;6177872;23;20008;-80
2021/07/20 08:06:29;;;;;;;7.97;6.13;;;;;;;21.45;47.27;101536.53;6177579;23;20017;-81
2021/07/20 08:09:04;;;;;;;12.40;6.57;;;;;;;21.36;45.73;101537.66;6126901;23;20004;-80
2021/07/20 08:11:31;;;;;;;9.55;5.75;;;;;;;21.35;46.02;101535.94;6151884;23;20008;-81
2021/07/20 08:13:58;;;;;;;9.88;5.88;;;;;;;21.34;46.08;101528.75;6179410;23;20056;-80
2021/07/20 08:16:27;;;;;;;9.95;5.78;;;;;;;21.44;46.43;101534.84;6178024;23;20421;-81
2021/07/20 08:18:55;;;;;;;7.78;5.20;;;;;;;21.60;45.80;101528.31;6178145;23;20005;-80
2021/07/20 08:21:20;;;;;;;10.68;5.70;;;;;;;21.74;45.94;101535.69;6177804;23;20008;-81
2021/07/20 08:23:46;;;;;;;9.80;5.40;;;;;;;21.85;45.16;101526.13;6151073;23;20032;-81
2021/07/20 08:26:19;;;;;;;9.40;5.75;;;;;;;21.89;45.02;101532.94;6178129;23;20004;-81
2021/07/20 08:28:52;;;;;;;8.52;5.43;;;;;;;22.01;45.05;101536.88;6178181;23;20008;-81
2021/07/20 08:31:19;;;;;;;8.88;5.25;;;;;;;22.05;45.17;101531.03;6178666;23;20702;-81
2021/07/20 08:33:47;;;;;;;8.23;5.35;;;;;;;21.98;45.24;101534.53;6177971;23;20104;-81
2021/07/20 08:36:15;;;;;;;12.02;5.72;;;;;;;21.81;45.42;101543.97;6177400;23;20005;-81
2021/07/20 08:38:42;;;;;;;8.50;6.07;;;;;;;21.79;45.36;101538.72;6178564;23;20848;-81
2021/07/20 08:41:58;;;;;;;7.68;5.10;;;;;;;21.71;45.85;101543.44;6177586;23;20346;-80
2021/07/20 08:44:53;;;;;;;10.27;5.60;;;;;;;21.65;46.28;101530.50;6141223;23;20095;-80
2021/07/20 08:47:27;;;;;;;9.23;5.82;;;;;;;21.64;46.56;101545.22;6150995;23;20342;-80
2021/07/20 08:49:58;;;;;;;8.32;5.38;;;;;;;21.80;46.52;101531.34;6177181;23;20028;-81
2021/07/20 08:52:36;;;;;;;8.73;5.60;;;;;;;21.95;45.06;101526.69;6150974;23;20737;-81
2021/07/20 08:55:22;;;;;;;7.20;5.53;;;;;;;21.72;44.96;101539.66;6151149;23;20330;-81
2021/07/20 08:57:56;;;;;;;10.95;5.72;;;;;;;21.67;45.81;101536.63;6178565;23;20009;-81
2021/07/20 09:00:25;;;;;;;8.80;5.78;;;;;;;21.71;44.90;101541.53;6179695;23;20032;-81
2021/07/20 09:02:59;;;;;;;9.88;5.60;;;;;;;21.60;44.69;101547.47;6152520;23;20009;-81
2021/07/20 09:05:34;;;;;;;8.75;5.30;;;;;;;21.56;45.43;101546.16;6179456;23;20016;-80
2021/07/20 09:08:10;;;;;;;7.65;5.50;;;;;;;21.70;45.51;101549.94;6179774;23;20083;-81
2021/07/20 09:11:05;;;;;;;6.97;5.70;;;;;;;22.04;44.63;101546.63;6152987;23;20457;-81
2021/07/20 09:13:35;;;;;;;11.43;5.65;;;;;;;22.05;43.14;101552.94;6152735;23;20016;-81
2021/07/20 09:16:09;;;;;;;10.07;6.32;;;;;;;22.00;43.81;101543.38;6181405;23;20013;-81
2021/07/20 09:18:45;;;;;;;9.13;5.53;;;;;;;22.00;43.44;101546.13;6153521;23;20012;-81
2021/07/20 09:21:12;;;;;;;5.72;5.10;;;;;;;21.92;43.00;101545.41;6179699;23;20723;-81
2021/07/20 09:24:03;;;;;;;7.65;5.80;;;;;;;21.94;42.64;101551.53;6180065;23;20076;-80
2021/07/20 09:26:35;;;;;;;8.80;6.60;;;;;;;21.60;42.83;101543.91;6178806;23;20008;-81
2021/07/20 09:29:12;;;;;;;6.18;5.35;;;;;;;21.70;42.14;101549.94;6179901;23;20016;-80
2021/07/20 09:31:46;;;;;;;9.40;5.38;;;;;;;21.86;41.84;101547.00;6180774;23;20386;-81
2021/07/20 09:34:31;;;;;;;9.02;5.93;;;;;;;22.08;40.85;101547.91;6179747;23;20609;-81
2021/07/20 09:36:56;;;;;;;8.82;5.18;;;;;;;22.25;40.17;101548.56;6152316;23;20088;-80
2021/07/20 09:39:58;;;;;;;7.97;4.93;;;;;;;22.16;40.56;101536.88;6152357;23;20512;-80
2021/07/20 09:42:42;;;;;;;7.88;5.63;;;;;;;22.45;41.00;101552.38;6180235;23;20028;-81
2021/07/20 09:45:07;;;;;;;7.03;5.18;;;;;;;22.64;40.06;101544.56;6154060;23;20009;-81
2021/07/20 09:47:36;;;;;;;8.98;5.68;;;;;;;22.91;40.73;101549.25;6153936;23;20054;-81
2021/07/20 09:50:15;;;;;;;8.30;5.50;;;;;;;22.97;39.15;101550.38;6180165;23;20019;-81
2021/07/20 09:53:18;;;;;;;7.13;5.50;;;;;;;23.12;39.36;101556.63;6179297;23;20005;-80
2021/07/20 09:56:09;;;;;;;10.00;5.80;;;;;;;23.23;39.20;101543.41;6181271;23;20070;-81
2021/07/20 09:58:56;;;;;;;7.60;5.80;;;;;;;23.21;39.10;101543.63;6179662;23;20071;-81
2021/07/20 10:01:36;;;;;;;8.20;5.55;;;;;;;23.43;39.08;101540.81;6154392;23;20641;-81
2021/07/20 10:04:20;;;;;;;7.15;5.65;;;;;;;23.42;38.82;101544.59;6180265;23;20008;-81
2021/07/20 10:06:50;;;;;;;8.40;5.68;;;;;;;22.99;39.01;101534.59;6180175;23;20071;-81
2021/07/20 10:09:23;;;;;;;6.07;5.43;;;;;;;22.99;38.51;101541.94;6152743;23;20012;-81
2021/07/20 10:11:59;;;;;;;7.93;5.45;;;;;;;23.39;38.80;101537.63;6179588;23;20860;-80
2021/07/20 10:14:28;;;;;;;7.57;5.28;;;;;;;23.57;38.37;101546.19;6180450;23;20430;-81
2021/07/20 10:17:30;;;;;;;8.00;5.57;;;;;;;23.51;37.78;101537.88;6179734;23;20016;-81
2021/07/20 10:20:13;;;;;;;8.93;4.88;;;;;;;23.08;38.87;101543.50;6179738;23;20015;-81
2021/07/20 10:22:51;;;;;;;6.80;4.82;;;;;;;22.88;38.50;101544.16;6180180;23;20009;-81
2021/07/20 10:25:27;;;;;;;5.85;4.80;;;;;;;22.94;38.90;101542.56;6179376;23;20009;-81
2021/07/20 10:27:59;;;;;;;7.80;4.68;;;;;;;23.07;38.54;101536.31;6178733;23;20067;-81
2021/07/20 10:30:28;;;;;;;8.38;5.07;;;;;;;23.45;38.52;101533.19;6180160;23;20062;-80
2021/07/20 10:33:17;;;;;;;9.70;4.50;;;;;;;23.79;38.06;101541.47;6153307;23;20009;-80
2021/07/20 10:36:01;;;;;;;6.53;5.07;;;;;;;23.65;38.28;101547.06;6179801;23;20001;-81
2021/07/20 10:38:35;;;;;;;6.57;4.28;;;;;;;23.58;38.16;101536.06;6178846;23;20009;-80
2021/07/20 10:41:03;;;;;;;6.50;4.75;;;;;;;23.51;38.42;101530.53;6179109;23;20693;-81
2021/07/20 10:43:32;;;;;;;6.75;4.72;;;;;;;23.08;38.56;101530.66;6152124;23;20005;-81
2021/07/20 10:46:02;;;;;;;4.82;4.25;;;;;;;22.99;39.09;101529.09;6179563;23;20039;-81
2021/07/20 10:48:30;;;;;;;8.25;5.70;;;;;;;22.73;38.99;101528.81;6181152;23;20008;-81
2021/07/20 10:51:00;;;;;;;7.20;4.75;;;;;;;22.75;39.05;101526.75;6179521;23;20095;-81
2021/07/20 10:53:31;;;;;;;6.57;4.80;;;;;;;22.99;39.11;101522.72;6179144;23;20034;-81
2021/07/20 10:56:02;;;;;;;5.57;4.55;;;;;;;23.25;39.79;101520.19;6181144;23;20004;-81
2021/07/20 10:58:43;;;;;;;6.88;5.32;;;;;;;23.25;38.87;101520.19;6179989;23;20005;-81
2021/07/20 11:01:19;;;;;;;7.37;5.30;;;;;;;23.39;38.92;101524.75;6152186;23;20048;-81
2021/07/20 11:03:58;;;;;;;7.90;4.85;;;;;;;23.85;37.33;101510.44;6179495;23;20011;-81
2021/07/20 11:06:27;;;;;;;8.35;5.00;;;;;;;23.99;36.24;101519.56;6179997;23;20021;-81
2021/07/20 11:08:57;;;;;;;6.13;4.93;;;;;;;23.88;36.55;101520.19;6178916;23;20027;-81
2021/07/20 11:11:32;;;;;;;6.35;4.65;;;;;;;24.02;37.25;101519.16;6179317;23;20012;-81
2021/07/20 11:13:59;;;;;;;8.73;5.80;;;;;;;23.96;37.40;101533.72;6151801;23;20009;-81
2021/07/20 11:16:26;;;;;;;7.05;4.93;;;;;;;24.01;37.90;101524.88;6151910;23;20005;-81
2021/07/20 11:18:53;;;;;;;9.68;5.35;;;;;;;24.07;36.80;101524.91;6152321;23;20353;-81
2021/07/20 11:21:23;;;;;;;7.32;4.55;;;;;;;24.10;37.41;101525.56;6180931;23;20008;-81
2021/07/20 11:23:50;;;;;;;6.70;5.22;;;;;;;23.78;37.17;101523.31;6180954;23;20004;-81
2021/07/20 11:26:17;;;;;;;4.75;4.28;;;;;;;23.51;37.98;101526.91;6178120;23;20005;-81
2021/07/20 11:28:44;;;;;;;7.13;4.88;;;;;;;23.79;38.82;101533.25;6179720;23;20063;-81
2021/07/20 11:31:14;;;;;;;5.75;4.90;;;;;;;23.37;40.40;101536.97;6179262;23;20008;-81
2021/07/20 11:33:45;;;;;;;8.15;5.38;;;;;;;23.11;41.42;101535.75;6152479;23;20001;-81
2021/07/20 11:36:16;;;;;;;8.68;4.85;;;;;;;23.17;41.81;101528.56;6181530;23;20524;-81
2021/07/20 11:38:44;;;;;;;7.85;5.10;;;;;;;22.96;42.75;101534.97;6155761;23;20024;-81
2021/07/20 11:41:22;;;;;;;6.22;4.97;;;;;;;23.15;42.49;101530.69;6182870;23;20012;-81